Time;durP1;ratioP1;P1;durP2;ratioP2;P2;SDS_P1;SDS_P2;PMS_P1;PMS_P2;Temp;Humidity;BMP_temperature;BMP_pressure;BME280_temperature;BME280_humidity;BME280_pressure;Samples;Min_cycle;Max_cycle;Signal;HPM_P1;HPM_P2
2022/02/18 00:00:56;;;;;;;5.65;3.47;;;8.40;99.30;;;;;;5083565;28;20201;-82
2022/02/18 00:03:24;;;;;;;10.50;3.72;;;8.30;99.30;;;;;;5083978;28;20240;-83
2022/02/18 00:05:52;;;;;;;7.57;3.22;;;8.30;99.40;;;;;;5083925;28;20208;-82
2022/02/18 00:08:20;;;;;;;9.07;3.78;;;8.20;99.50;;;;;;5084088;28;20205;-83
2022/02/18 00:10:47;;;;;;;7.97;5.78;;;8.10;99.60;;;;;;5082772;28;20216;-83
2022/02/18 00:13:14;;;;;;;11.95;4.32;;;8.00;99.90;;;;;;5080946;28;20212;-83
2022/02/18 00:15:41;;;;;;;9.98;3.55;;;8.00;99.90;;;;;;5080945;28;20229;-83
2022/02/18 00:18:08;;;;;;;10.60;3.95;;;8.00;99.90;;;;;;5063910;28;21809;-83
2022/02/18 00:20:36;;;;;;;9.98;4.97;;;7.90;99.90;;;;;;5081070;28;20261;-83
2022/02/18 00:23:05;;;;;;;5.18;3.47;;;8.00;99.90;;;;;;5081272;28;20197;-83
2022/02/18 00:25:34;;;;;;;9.40;3.85;;;8.00;99.90;;;;;;5081050;28;20686;-83
2022/02/18 00:28:01;;;;;;;6.63;2.97;;;7.90;99.90;;;;;;5081731;28;20231;-83
2022/02/18 00:30:28;;;;;;;9.07;3.60;;;8.00;99.90;;;;;;5081135;28;20575;-83
2022/02/18 00:32:55;;;;;;;8.40;3.28;;;8.00;99.80;;;;;;5080579;28;20234;-83
2022/02/18 00:35:22;;;;;;;8.20;3.30;;;8.20;99.70;;;;;;5081297;28;20229;-83
2022/02/18 00:37:50;;;;;;;9.95;3.50;;;8.20;99.80;;;;;;5081187;28;20226;-83
2022/02/18 00:40:18;;;;;;;13.10;4.05;;;8.20;99.30;;;;;;5080386;28;20216;-83
2022/02/18 00:42:44;;;;;;;10.90;5.05;;;8.20;99.20;;;;;;5081319;28;20567;-83
2022/02/18 00:45:12;;;;;;;5.28;2.55;;;8.30;99.00;;;;;;5081020;28;20758;-83
2022/02/18 00:47:39;;;;;;;8.63;4.97;;;8.20;99.10;;;;;;5080365;28;20219;-83
2022/02/18 00:50:07;;;;;;;8.25;3.15;;;8.30;99.00;;;;;;5080624;28;20205;-83
2022/02/18 00:52:34;;;;;;;10.60;3.22;;;8.30;99.00;;;;;;5080552;28;20284;-83
2022/02/18 00:55:01;;;;;;;11.18;3.78;;;8.40;99.10;;;;;;5080193;28;20222;-84
2022/02/18 00:57:29;;;;;;;11.15;3.85;;;8.40;99.10;;;;;;5081043;28;20221;-83
2022/02/18 00:59:56;;;;;;;13.45;4.32;;;8.40;99.10;;;;;;5080101;28;20301;-83
2022/02/18 01:02:23;;;;;;;15.35;5.03;;;8.40;99.20;;;;;;5079856;28;20208;-82
2022/02/18 01:04:49;;;;;;;15.63;5.00;;;8.40;99.10;;;;;;5079458;28;20699;-82
2022/02/18 01:07:16;;;;;;;8.63;3.35;;;8.50;99.10;;;;;;5078893;28;20294;-82
2022/02/18 01:09:43;;;;;;;14.60;4.28;;;8.40;99.00;;;;;;5079852;28;20217;-82
2022/02/18 01:12:10;;;;;;;8.23;4.25;;;8.30;99.10;;;;;;5079147;28;20209;-82
2022/02/18 01:14:38;;;;;;;5.43;3.55;;;8.40;99.30;;;;;;5079683;28;20614;-82
2022/02/18 01:17:04;;;;;;;16.42;5.07;;;8.40;99.20;;;;;;5079456;28;20221;-82
2022/02/18 01:19:31;;;;;;;5.45;2.92;;;8.40;99.30;;;;;;5079235;28;20196;-82
2022/02/18 01:21:58;;;;;;;12.30;4.10;;;8.40;99.40;;;;;;5078866;28;20591;-82
2022/02/18 01:24:25;;;;;;;7.03;3.55;;;8.40;99.40;;;;;;5078774;28;20225;-82
2022/02/18 01:26:52;;;;;;;12.18;4.03;;;8.30;99.50;;;;;;5078843;28;20289;-82
2022/02/18 01:29:18;;;;;;;12.35;5.68;;;8.40;99.70;;;;;;5088655;28;20692;-83
2022/02/18 01:31:46;;;;;;;7.00;3.72;;;8.30;99.80;;;;;;5090577;28;20214;-83
2022/02/18 01:34:14;;;;;;;10.93;3.33;;;8.30;99.90;;;;;;5091264;28;20228;-83
2022/02/18 01:36:41;;;;;;;8.30;2.85;;;8.20;99.90;;;;;;5091268;28;20197;-83
2022/02/18 01:39:10;;;;;;;11.32;3.10;;;8.20;99.90;;;;;;5090180;28;20209;-82
2022/02/18 01:41:37;;;;;;;8.25;4.40;;;8.20;99.90;;;;;;5089602;28;20213;-83
2022/02/18 01:44:06;;;;;;;13.50;4.32;;;8.20;99.90;;;;;;5090512;28;20221;-83
2022/02/18 01:46:34;;;;;;;10.32;4.03;;;8.20;99.90;;;;;;5089888;28;20262;-84
2022/02/18 01:49:03;;;;;;;7.22;4.10;;;8.30;99.90;;;;;;5090301;28;20197;-83
2022/02/18 01:51:30;;;;;;;9.15;4.03;;;8.20;99.90;;;;;;5089482;28;20209;-84
2022/02/18 01:53:58;;;;;;;8.68;3.17;;;8.10;99.90;;;;;;5090656;28;20224;-83
2022/02/18 01:56:25;;;;;;;10.50;3.38;;;8.20;99.90;;;;;;5090800;28;20208;-83
2022/02/18 01:58:52;;;;;;;12.68;4.40;;;8.20;99.90;;;;;;5089536;28;20225;-83
2022/02/18 02:01:19;;;;;;;11.55;3.35;;;8.20;99.90;;;;;;5077771;28;20206;-83
2022/02/18 02:03:46;;;;;;;10.38;2.72;;;8.20;99.90;;;;;;5089271;28;20224;-83
2022/02/18 02:06:16;;;;;;;9.55;4.22;;;8.20;99.90;;;;;;5088620;28;20237;-83
2022/02/18 02:08:43;;;;;;;4.75;3.22;;;8.10;99.90;;;;;;5081230;28;20222;-83
2022/02/18 02:11:10;;;;;;;18.42;4.57;;;8.10;99.90;;;;;;5069807;28;20189;-83
2022/02/18 02:13:38;;;;;;;9.35;3.90;;;8.00;99.90;;;;;;5070664;28;20317;-83
2022/02/18 02:16:05;;;;;;;11.02;3.63;;;8.10;99.90;;;;;;5089164;28;20208;-83
2022/02/18 02:18:32;;;;;;;7.00;2.67;;;8.10;99.90;;;;;;5091683;28;20229;-83
2022/02/18 02:20:59;;;;;;;9.40;3.53;;;8.10;99.90;;;;;;5090221;28;20209;-82
2022/02/18 02:23:28;;;;;;;5.63;3.55;;;8.10;99.90;;;;;;5090923;28;20202;-83
2022/02/18 02:25:54;;;;;;;11.20;3.30;;;8.10;99.90;;;;;;5090310;28;20205;-82
2022/02/18 02:28:22;;;;;;;15.85;3.58;;;8.10;99.90;;;;;;5090525;28;20197;-83
2022/02/18 02:30:49;;;;;;;11.50;3.38;;;8.10;99.90;;;;;;5090124;28;20193;-84
2022/02/18 02:33:16;;;;;;;11.07;3.90;;;8.20;99.90;;;;;;5090177;28;20202;-83
2022/02/18 02:35:42;;;;;;;10.20;3.80;;;8.20;99.90;;;;;;5074122;28;20239;-84
2022/02/18 02:38:09;;;;;;;5.00;3.05;;;8.10;99.90;;;;;;5089644;28;20229;-83
2022/02/18 02:40:37;;;;;;;9.40;4.03;;;8.10;99.90;;;;;;5088993;28;20208;-82
2022/02/18 02:43:04;;;;;;;6.80;2.85;;;8.00;99.90;;;;;;5089521;28;20611;-83
2022/02/18 02:45:31;;;;;;;12.65;4.75;;;8.00;99.90;;;;;;5089477;28;20234;-83
2022/02/18 02:47:58;;;;;;;12.05;4.35;;;8.00;99.90;;;;;;5089682;28;20201;-83
2022/02/18 02:50:25;;;;;;;9.43;2.88;;;8.10;99.90;;;;;;5088851;28;20215;-84
2022/02/18 02:52:51;;;;;;;7.28;3.15;;;8.00;99.90;;;;;;5088857;28;20201;-83
2022/02/18 02:55:19;;;;;;;8.57;3.55;;;8.10;99.90;;;;;;5089263;28;20232;-83
2022/02/18 02:57:47;;;;;;;10.18;3.10;;;8.00;99.90;;;;;;5089162;28;20212;-84
2022/02/18 03:00:15;;;;;;;5.07;2.72;;;8.00;99.90;;;;;;5088532;28;20205;-84
2022/02/18 03:02:43;;;;;;;11.55;4.25;;;8.00;99.90;;;;;;5089370;28;20197;-83
2022/02/18 03:05:13;;;;;;;8.05;3.30;;;8.00;99.90;;;;;;5089276;28;20231;-83
2022/02/18 03:07:40;;;;;;;7.25;2.28;;;8.00;99.90;;;;;;5089416;28;20265;-83
2022/02/18 03:10:08;;;;;;;5.30;3.22;;;8.10;99.90;;;;;;5088856;28;20201;-84
2022/02/18 03:12:35;;;;;;;8.32;3.60;;;8.20;99.90;;;;;;5092844;28;20227;-83
2022/02/18 03:15:05;;;;;;;7.22;3.17;;;8.10;99.90;;;;;;5092524;28;20286;-84
2022/02/18 03:17:32;;;;;;;4.93;3.60;;;8.10;99.90;;;;;;5094202;28;20225;-83
2022/02/18 03:19:59;;;;;;;10.38;3.65;;;8.20;99.90;;;;;;5092199;28;20201;-83
2022/02/18 03:22:26;;;;;;;7.45;3.90;;;8.20;99.90;;;;;;5093361;28;20196;-83
2022/02/18 03:24:53;;;;;;;5.50;3.47;;;8.20;99.90;;;;;;5093270;28;20220;-83
2022/02/18 03:27:20;;;;;;;8.90;2.80;;;8.20;99.90;;;;;;5093371;28;20205;-84
2022/02/18 03:29:48;;;;;;;4.43;2.97;;;8.20;99.90;;;;;;5094190;28;20201;-83
2022/02/18 03:32:17;;;;;;;4.50;2.92;;;8.20;99.90;;;;;;5092981;28;20208;-83
2022/02/18 03:34:43;;;;;;;7.55;2.63;;;8.20;99.90;;;;;;5093097;28;20225;-83
2022/02/18 03:37:10;;;;;;;9.45;3.47;;;8.30;99.90;;;;;;5093397;28;20559;-83
2022/02/18 03:39:37;;;;;;;11.43;3.60;;;8.40;99.90;;;;;;5093759;28;20201;-83
2022/02/18 03:42:04;;;;;;;6.90;2.97;;;8.40;99.90;;;;;;5093023;28;20199;-83
2022/02/18 03:44:31;;;;;;;8.75;2.42;;;8.40;99.90;;;;;;5094031;28;20225;-83
2022/02/18 03:46:58;;;;;;;13.57;3.35;;;8.30;99.90;;;;;;5092964;28;20197;-83
2022/02/18 03:49:26;;;;;;;9.27;3.80;;;8.30;99.90;;;;;;5093847;28;20203;-83
2022/02/18 03:51:53;;;;;;;3.00;2.60;;;8.30;99.90;;;;;;5092468;28;20203;-83
2022/02/18 03:54:20;;;;;;;14.77;4.25;;;8.20;99.90;;;;;;5092951;28;20304;-83
2022/02/18 03:56:46;;;;;;;6.32;3.08;;;8.30;99.90;;;;;;5091623;28;20201;-83
2022/02/18 03:59:13;;;;;;;10.27;3.25;;;8.20;99.90;;;;;;5091175;28;20227;-82
2022/02/18 04:01:40;;;;;;;7.93;3.97;;;8.20;99.90;;;;;;5091495;28;20220;-83
2022/02/18 04:04:07;;;;;;;5.65;3.00;;;8.20;99.90;;;;;;5091997;28;20219;-83
2022/02/18 04:06:35;;;;;;;8.07;3.00;;;8.20;99.90;;;;;;5091354;28;20201;-83
2022/02/18 04:09:02;;;;;;;4.78;3.33;;;8.10;99.90;;;;;;5089262;28;20194;-83
2022/02/18 04:11:29;;;;;;;7.93;4.15;;;8.10;99.90;;;;;;5089178;28;20205;-82
2022/02/18 04:13:56;;;;;;;8.57;3.35;;;8.20;99.90;;;;;;5088191;28;20297;-82
2022/02/18 04:16:23;;;;;;;7.18;2.63;;;8.20;99.90;;;;;;5089415;28;20209;-83
2022/02/18 04:18:50;;;;;;;5.32;2.47;;;8.20;99.90;;;;;;5089640;28;20220;-83
2022/02/18 04:21:17;;;;;;;6.35;2.33;;;8.20;99.90;;;;;;5089311;28;20220;-84
2022/02/18 04:23:45;;;;;;;8.13;2.78;;;8.20;99.90;;;;;;5088396;28;20745;-84
2022/02/18 04:26:12;;;;;;;9.23;4.25;;;8.20;99.90;;;;;;5087836;28;20207;-83
2022/02/18 04:28:38;;;;;;;8.35;3.95;;;8.20;99.90;;;;;;5087073;28;20202;-82
2022/02/18 04:31:06;;;;;;;4.72;2.60;;;8.20;99.90;;;;;;5087540;28;20201;-83
2022/02/18 04:33:33;;;;;;;6.50;4.60;;;8.30;99.90;;;;;;5087345;28;20221;-82
2022/02/18 04:36:01;;;;;;;8.32;3.40;;;8.30;99.90;;;;;;5075658;28;20207;-83
2022/02/18 04:38:28;;;;;;;11.18;2.70;;;8.20;99.90;;;;;;5088081;28;20598;-83
2022/02/18 04:40:58;;;;;;;4.78;3.08;;;8.30;99.90;;;;;;5088532;28;20280;-83
2022/02/18 04:43:24;;;;;;;5.57;2.70;;;8.40;99.90;;;;;;5088099;28;20293;-82
2022/02/18 04:45:51;;;;;;;5.40;2.50;;;8.30;99.90;;;;;;5087077;28;20202;-83
2022/02/18 04:48:18;;;;;;;11.57;3.20;;;8.40;99.90;;;;;;5087895;28;20203;-83
2022/02/18 04:50:45;;;;;;;4.93;3.05;;;8.50;99.90;;;;;;5086977;28;20197;-83
2022/02/18 04:53:11;;;;;;;8.73;3.20;;;8.50;99.90;;;;;;5087777;28;20197;-83
2022/02/18 04:55:38;;;;;;;5.10;3.97;;;8.50;99.90;;;;;;5088938;28;20245;-82
2022/02/18 04:58:07;;;;;;;7.93;2.85;;;8.50;99.90;;;;;;5088795;28;20240;-82
2022/02/18 05:00:34;;;;;;;10.20;3.50;;;8.40;99.90;;;;;;5087868;28;20274;-82
2022/02/18 05:03:00;;;;;;;5.57;2.70;;;8.50;99.90;;;;;;5088460;28;20222;-83
2022/02/18 05:05:27;;;;;;;4.68;2.20;;;8.50;99.90;;;;;;5087818;28;20221;-81
2022/02/18 05:07:54;;;;;;;4.57;2.42;;;8.50;99.90;;;;;;5088578;28;20201;-83
2022/02/18 05:10:20;;;;;;;12.35;3.90;;;8.50;99.90;;;;;;5089237;28;20203;-84
2022/02/18 05:12:47;;;;;;;6.03;3.00;;;8.50;99.90;;;;;;5090325;28;20279;-83
2022/02/18 05:15:15;;;;;;;12.82;3.95;;;8.50;99.90;;;;;;5090244;28;20218;-83
2022/02/18 05:17:46;;;;;;;7.35;3.00;;;8.40;99.90;;;;;;5087288;28;20208;-83
2022/02/18 05:20:13;;;;;;;8.95;3.47;;;8.40;99.90;;;;;;5088183;28;20985;-83
2022/02/18 05:22:40;;;;;;;5.43;2.67;;;8.50;99.90;;;;;;5089349;28;20212;-83
2022/02/18 05:25:07;;;;;;;6.20;2.50;;;8.50;99.90;;;;;;5089675;28;20234;-83
2022/02/18 05:27:34;;;;;;;3.38;2.38;;;8.50;99.90;;;;;;5090493;28;20205;-83
2022/02/18 05:30:01;;;;;;;4.15;3.15;;;8.50;99.90;;;;;;5089572;28;20242;-83
2022/02/18 05:32:29;;;;;;;8.07;3.53;;;8.50;99.90;;;;;;5088103;28;20674;-82
2022/02/18 05:34:56;;;;;;;11.00;3.67;;;8.50;99.90;;;;;;5088924;28;20296;-82
2022/02/18 05:37:22;;;;;;;8.80;2.85;;;8.40;99.90;;;;;;5089009;28;20210;-82
2022/02/18 05:39:49;;;;;;;5.53;2.30;;;8.50;99.90;;;;;;5088892;28;20343;-84
2022/02/18 05:42:16;;;;;;;6.65;3.25;;;8.50;99.90;;;;;;5089019;28;20215;-83
2022/02/18 05:44:43;;;;;;;13.32;3.83;;;8.40;99.90;;;;;;5088935;28;20221;-83
2022/02/18 05:47:09;;;;;;;10.93;3.42;;;8.40;99.90;;;;;;5089273;28;20223;-83
2022/02/18 05:49:37;;;;;;;8.63;3.25;;;8.40;99.90;;;;;;5089658;28;20298;-83
2022/02/18 05:52:05;;;;;;;8.25;3.25;;;8.50;99.90;;;;;;5073406;28;20232;-83
2022/02/18 05:54:32;;;;;;;7.95;3.80;;;8.40;99.90;;;;;;5087836;28;20229;-82
2022/02/18 05:56:58;;;;;;;9.57;3.38;;;8.40;99.90;;;;;;5086143;28;20206;-82
2022/02/18 05:59:25;;;;;;;6.85;2.80;;;8.40;99.90;;;;;;5088111;28;20229;-82
2022/02/18 06:01:52;;;;;;;5.28;2.47;;;8.50;99.90;;;;;;5088075;28;20197;-83
2022/02/18 06:04:19;;;;;;;13.40;5.88;;;8.50;99.90;;;;;;5088145;28;20229;-83
2022/02/18 06:06:47;;;;;;;8.77;3.38;;;8.50;99.90;;;;;;5087991;28;20292;-82
2022/02/18 06:09:14;;;;;;;7.03;2.67;;;8.50;99.90;;;;;;5088578;28;20197;-83
2022/02/18 06:11:41;;;;;;;9.98;3.13;;;8.60;99.90;;;;;;5088435;28;20223;-83
2022/02/18 06:14:08;;;;;;;8.27;3.70;;;8.60;99.90;;;;;;5088910;28;20308;-83
2022/02/18 06:16:35;;;;;;;9.05;4.13;;;8.60;99.90;;;;;;5089006;28;20908;-83
2022/02/18 06:19:04;;;;;;;9.63;3.88;;;8.60;99.90;;;;;;5089007;28;20221;-83
2022/02/18 06:21:31;;;;;;;4.75;2.83;;;8.70;99.90;;;;;;5088911;28;20208;-83
2022/02/18 06:23:59;;;;;;;7.45;3.50;;;8.70;99.90;;;;;;5089147;28;20226;-84
2022/02/18 06:26:26;;;;;;;7.90;3.58;;;8.60;99.90;;;;;;5088507;28;20199;-83
2022/02/18 06:28:53;;;;;;;10.32;3.72;;;8.60;99.90;;;;;;5088570;28;20200;-82
2022/02/18 06:31:21;;;;;;;5.47;2.53;;;8.60;99.90;;;;;;5087065;28;20212;-83
2022/02/18 06:33:48;;;;;;;9.57;3.40;;;8.60;99.90;;;;;;5086880;28;20240;-82
2022/02/18 06:36:15;;;;;;;9.13;3.10;;;8.70;99.90;;;;;;5075492;28;20206;-82
2022/02/18 06:38:44;;;;;;;6.57;3.88;;;8.80;99.90;;;;;;5075237;28;20232;-82
2022/02/18 06:41:12;;;;;;;5.05;2.25;;;8.80;99.90;;;;;;5075832;28;20209;-81
2022/02/18 06:43:39;;;;;;;5.13;2.78;;;8.80;99.90;;;;;;5075760;28;20205;-81
2022/02/18 06:46:06;;;;;;;6.57;2.50;;;8.80;99.90;;;;;;5075447;28;20208;-80
2022/02/18 06:48:33;;;;;;;8.63;3.38;;;8.80;99.90;;;;;;5076114;28;20682;-80
2022/02/18 06:51:00;;;;;;;8.18;3.42;;;8.80;99.90;;;;;;5078835;28;20205;-84
2022/02/18 06:53:27;;;;;;;8.18;2.83;;;8.80;99.90;;;;;;5079066;28;20678;-81
2022/02/18 06:55:54;;;;;;;7.03;3.33;;;8.70;99.90;;;;;;5077000;28;20197;-82
2022/02/18 06:58:22;;;;;;;9.02;2.90;;;8.80;99.90;;;;;;5077795;28;20228;-80
2022/02/18 07:00:51;;;;;;;5.30;2.75;;;8.80;99.90;;;;;;5077451;28;20230;-81
2022/02/18 07:03:18;;;;;;;7.05;4.78;;;8.80;99.90;;;;;;5078329;28;20201;-82
2022/02/18 07:05:45;;;;;;;6.97;2.38;;;8.80;99.90;;;;;;5076393;28;20217;-81
2022/02/18 07:08:12;;;;;;;8.00;2.72;;;8.80;99.90;;;;;;5079216;28;20206;-82
2022/02/18 07:10:40;;;;;;;7.10;3.83;;;8.80;99.90;;;;;;5076954;28;20198;-82
2022/02/18 07:13:07;;;;;;;10.40;3.30;;;8.80;99.90;;;;;;5085821;28;20246;-83
2022/02/18 07:15:35;;;;;;;7.18;2.85;;;8.80;99.90;;;;;;5077244;28;20240;-83
2022/02/18 07:18:03;;;;;;;6.93;2.67;;;8.80;99.90;;;;;;5085589;28;20207;-84
2022/02/18 07:20:29;;;;;;;4.90;2.78;;;8.90;99.90;;;;;;5088405;28;20214;-85
2022/02/18 07:22:56;;;;;;;3.65;2.92;;;8.80;99.90;;;;;;5088714;28;20207;-84
2022/02/18 07:25:23;;;;;;;7.60;2.90;;;8.90;99.90;;;;;;5088548;28;20218;-82
2022/02/18 07:27:50;;;;;;;5.38;3.22;;;8.90;99.90;;;;;;5088247;28;20201;-82
2022/02/18 07:30:17;;;;;;;9.07;2.72;;;8.90;99.90;;;;;;5088227;28;20228;-81
2022/02/18 07:32:45;;;;;;;8.05;2.67;;;9.00;99.90;;;;;;5085859;28;20203;-85
2022/02/18 07:35:12;;;;;;;5.97;2.83;;;8.90;99.90;;;;;;5086099;28;20615;-84
2022/02/18 07:37:39;;;;;;;5.85;2.35;;;9.00;99.90;;;;;;5086768;28;20218;-85
2022/02/18 07:40:07;;;;;;;4.30;1.90;;;9.10;99.90;;;;;;5085315;28;20224;-86
2022/02/18 07:42:34;;;;;;;3.93;2.00;;;9.10;99.90;;;;;;5084318;28;20207;-86
2022/02/18 07:45:01;;;;;;;3.55;1.65;;;9.20;99.90;;;;;;5083323;28;20561;-85
2022/02/18 07:47:28;;;;;;;6.80;2.30;;;9.20;99.90;;;;;;5079282;28;20289;-85
2022/02/18 07:49:56;;;;;;;9.25;2.95;;;9.20;99.90;;;;;;5079855;28;20703;-84
2022/02/18 07:52:23;;;;;;;4.50;1.98;;;9.40;99.90;;;;;;5075938;28;20202;-84
2022/02/18 07:54:50;;;;;;;3.47;2.10;;;9.40;99.90;;;;;;5072345;28;20314;-85
2022/02/18 07:57:17;;;;;;;2.80;1.90;;;9.50;99.90;;;;;;5071452;28;20195;-83
2022/02/18 07:59:44;;;;;;;6.65;2.92;;;9.50;99.90;;;;;;5075089;28;20214;-85
2022/02/18 08:02:11;;;;;;;12.27;2.75;;;9.60;99.90;;;;;;5076640;28;20203;-83
2022/02/18 08:04:38;;;;;;;6.40;3.63;;;9.60;99.90;;;;;;5076009;28;20265;-84
2022/02/18 08:07:06;;;;;;;2.33;1.75;;;9.60;99.90;;;;;;5076721;28;20194;-84
2022/02/18 08:09:33;;;;;;;2.70;1.67;;;9.70;99.90;;;;;;5078996;28;20263;-85
2022/02/18 08:12:00;;;;;;;2.05;1.73;;;9.80;99.90;;;;;;5079242;28;20198;-85
2022/02/18 08:14:27;;;;;;;5.82;1.75;;;9.80;99.90;;;;;;5081347;28;20222;-85
2022/02/18 08:16:54;;;;;;;2.60;1.83;;;9.90;99.90;;;;;;5078305;28;20200;-85
2022/02/18 08:19:21;;;;;;;8.02;3.40;;;10.00;99.90;;;;;;5074314;28;20489;-85
2022/02/18 08:21:48;;;;;;;2.65;1.40;;;10.10;99.90;;;;;;5083873;28;20626;-85
2022/02/18 08:24:18;;;;;;;3.20;1.50;;;10.10;99.90;;;;;;5087465;28;20253;-83
2022/02/18 08:26:45;;;;;;;2.70;1.38;;;10.40;99.90;;;;;;5090686;28;20229;-82
2022/02/18 08:29:12;;;;;;;3.60;2.00;;;10.40;99.90;;;;;;5091069;28;20207;-82
2022/02/18 08:31:39;;;;;;;4.30;1.80;;;10.50;99.90;;;;;;5090333;28;20818;-83
2022/02/18 08:34:06;;;;;;;1.83;1.07;;;10.60;99.90;;;;;;5081170;28;21003;-83
2022/02/18 08:36:35;;;;;;;3.00;1.20;;;10.70;99.90;;;;;;5084968;28;20516;-81
2022/02/18 08:39:01;;;;;;;5.57;3.20;;;10.90;99.90;;;;;;5088692;28;20229;-82
2022/02/18 08:41:29;;;;;;;1.37;1.10;;;11.00;99.90;;;;;;5083597;28;20462;-82
2022/02/18 08:43:58;;;;;;;2.57;2.37;;;11.10;99.90;;;;;;5069924;28;20538;-82
2022/02/18 08:46:25;;;;;;;1.80;1.10;;;11.20;99.90;;;;;;5080457;28;20968;-82
2022/02/18 08:48:51;;;;;;;7.50;1.63;;;11.30;99.90;;;;;;5083213;28;20485;-83
2022/02/18 08:51:18;;;;;;;2.90;1.10;;;11.40;99.90;;;;;;5081208;28;20521;-85
2022/02/18 08:53:45;;;;;;;3.90;1.70;;;11.50;99.90;;;;;;5089332;28;20466;-83
2022/02/18 08:56:12;;;;;;;1.27;1.00;;;11.60;99.90;;;;;;5089025;28;20450;-83
2022/02/18 08:58:41;;;;;;;2.60;1.33;;;11.60;99.90;;;;;;5086339;28;21153;-83
2022/02/18 09:01:08;;;;;;;2.10;0.93;;;11.70;99.90;;;;;;5088430;28;20528;-82
2022/02/18 09:03:35;;;;;;;5.00;1.30;;;11.80;99.90;;;;;;5088205;28;20451;-83
2022/02/18 09:06:01;;;;;;;3.60;1.43;;;11.80;99.90;;;;;;5086011;28;20460;-81
2022/02/18 09:08:28;;;;;;;1.17;0.90;;;12.00;99.90;;;;;;5082160;28;20442;-83
2022/02/18 09:10:56;;;;;;;2.40;1.30;;;12.10;99.90;;;;;;5083270;28;20457;-80
2022/02/18 09:13:25;;;;;;;1.73;0.80;;;12.20;99.90;;;;;;5083282;28;20449;-81
2022/02/18 09:15:54;;;;;;;0.80;0.80;;;12.30;99.90;;;;;;5082840;28;20460;-83
2022/02/18 09:18:21;;;;;;;1.67;1.00;;;12.40;99.90;;;;;;5085836;28;20477;-81
2022/02/18 09:20:49;;;;;;;3.93;1.33;;;12.30;99.90;;;;;;5082228;28;20493;-79
2022/02/18 09:23:16;;;;;;;5.30;1.30;;;12.30;99.90;;;;;;5080426;28;20501;-81
2022/02/18 09:25:43;;;;;;;2.10;0.90;;;12.50;99.90;;;;;;5076316;28;20477;-80
2022/02/18 09:28:10;;;;;;;3.73;0.97;;;12.50;99.90;;;;;;5074443;28;20462;-80
2022/02/18 09:30:43;;;;;;;1.53;0.80;;;12.60;99.90;;;;;;5081180;28;20451;-80
2022/02/18 09:33:12;;;;;;;1.17;0.97;;;12.70;99.90;;;;;;5086986;28;20962;-80
2022/02/18 09:35:41;;;;;;;1.83;0.80;;;12.80;99.90;;;;;;5085499;28;20538;-81
2022/02/18 09:38:11;;;;;;;0.77;0.77;;;12.80;99.90;;;;;;5086155;28;20455;-81
2022/02/18 09:40:38;;;;;;;4.83;0.90;;;12.90;99.90;;;;;;5083344;28;20485;-80
2022/02/18 09:43:05;;;;;;;2.40;1.00;;;13.10;99.90;;;;;;5084871;28;20522;-80
2022/02/18 09:45:44;;;;;;;1.30;0.83;;;13.10;99.90;;;;;;5084137;28;20471;-83
2022/02/18 09:48:14;;;;;;;1.57;0.90;;;13.20;99.90;;;;;;5079738;28;20447;-81
2022/02/18 09:50:41;;;;;;;2.33;1.23;;;13.30;99.90;;;;;;5077271;28;20440;-80
2022/02/18 09:53:08;;;;;;;1.53;0.80;;;13.50;99.90;;;;;;5081212;28;20451;-79
2022/02/18 09:55:38;;;;;;;1.10;1.00;;;13.80;99.90;;;;;;5078070;28;20468;-80
2022/02/18 09:58:06;;;;;;;1.27;1.00;;;13.90;99.90;;;;;;5079861;28;20451;-81
2022/02/18 10:00:33;;;;;;;1.67;0.70;;;13.90;99.90;;;;;;5080858;28;20526;-79
2022/02/18 10:03:00;;;;;;;2.50;1.70;;;13.90;99.90;;;;;;5079940;28;20447;-81
2022/02/18 10:05:28;;;;;;;1.50;0.80;;;14.10;99.90;;;;;;5077457;28;20474;-79
2022/02/18 10:08:10;;;;;;;0.93;0.60;;;14.30;99.90;;;;;;5078417;28;20452;-79
2022/02/18 10:10:38;;;;;;;1.50;0.80;;;14.40;99.90;;;;;;5081245;28;20447;-80
2022/02/18 10:13:07;;;;;;;1.63;1.10;;;14.50;99.90;;;;;;5083694;28;20444;-81
2022/02/18 10:15:44;;;;;;;1.90;1.10;;;14.60;99.90;;;;;;5082488;28;20930;-81
2022/02/18 10:18:11;;;;;;;2.27;1.47;;;14.60;99.90;;;;;;5082126;28;20452;-79
2022/02/18 10:20:43;;;;;;;2.03;1.00;;;14.60;99.90;;;;;;5077426;28;20508;-79
2022/02/18 10:23:11;;;;;;;1.33;0.80;;;14.70;99.90;;;;;;5078408;28;20489;-82
2022/02/18 10:26:26;;;;;;;2.00;0.87;;;14.70;99.90;;;;;;5074479;28;20503;-82
2022/02/18 10:28:58;;;;;;;3.30;1.13;;;14.70;99.90;;;;;;5060666;28;20548;-81
2022/02/18 10:31:28;;;;;;;0.90;0.90;;;14.60;99.90;;;;;;5075445;28;20744;-81
2022/02/18 10:34:07;;;;;;;2.77;1.47;;;14.70;99.90;;;;;;5078556;28;20468;-81
2022/02/18 10:36:53;;;;;;;2.20;1.10;;;14.70;99.90;;;;;;5083593;28;20455;-82
2022/02/18 10:39:25;;;;;;;1.97;1.27;;;14.80;99.90;;;;;;5082916;28;20450;-80
2022/02/18 10:41:53;;;;;;;2.70;1.20;;;14.90;99.90;;;;;;5085018;28;20505;-80
2022/02/18 10:44:20;;;;;;;4.50;1.00;;;15.10;99.90;;;;;;5085172;28;20493;-80
2022/02/18 10:46:55;;;;;;;0.77;0.77;;;15.10;99.90;;;;;;5084331;28;20461;-80
2022/02/18 10:49:23;;;;;;;0.93;0.83;;;15.30;99.90;;;;;;5081927;28;21027;-81
2022/02/18 10:51:52;;;;;;;3.17;0.93;;;15.30;99.70;;;;;;5082900;28;20453;-83
2022/02/18 10:54:30;;;;;;;1.20;0.90;;;15.50;99.60;;;;;;5084671;28;20475;-81
2022/02/18 10:57:22;;;;;;;1.03;0.93;;;15.70;99.20;;;;;;5076932;28;20447;-83
2022/02/18 10:59:54;;;;;;;4.13;1.10;;;15.90;98.60;;;;;;5081639;28;20477;-83
2022/02/18 11:02:37;;;;;;;0.93;0.70;;;16.00;98.40;;;;;;5079313;28;20460;-81
2022/02/18 11:05:20;;;;;;;1.67;0.97;;;16.10;98.40;;;;;;5078610;28;20473;-81
2022/02/18 11:07:47;;;;;;;1.57;1.20;;;16.40;98.30;;;;;;5084375;28;20443;-81
2022/02/18 11:13:20;;;;;;;1.67;0.93;;;16.50;97.60;;;;;;5161484;27;20568;-84
2022/02/18 11:16:05;;;;;;;3.03;0.90;;;17.20;96.30;;;;;;5163548;27;20560;-81
2022/02/18 11:18:32;;;;;;;0.97;0.80;;;17.20;95.70;;;;;;5139653;27;20446;-81
2022/02/18 11:20:59;;;;;;;0.60;0.60;;;17.20;95.50;;;;;;5132371;27;20455;-81
2022/02/18 11:23:27;;;;;;;1.80;1.30;;;16.90;95.70;;;;;;5132418;27;20442;-85
2022/02/18 11:25:55;;;;;;;1.80;1.37;;;16.80;96.20;;;;;;5133841;27;20502;-83
2022/02/18 11:28:23;;;;;;;2.40;1.30;;;16.80;96.10;;;;;;5132945;27;20452;-85
2022/02/18 11:30:52;;;;;;;1.33;0.90;;;16.70;96.20;;;;;;5133417;27;20446;-83
2022/02/18 11:33:32;;;;;;;1.13;0.70;;;16.60;96.30;;;;;;5134159;27;20446;-84
2022/02/18 11:39:36;;;;;;;1.17;0.90;;;16.60;96.30;;;;;;5135452;28;20437;-85
2022/02/18 11:42:12;;;;;;;3.30;1.30;;;16.80;96.20;;;;;;5133510;27;20434;-84
2022/02/18 11:44:41;;;;;;;1.63;1.40;;;17.40;95.50;;;;;;5132693;27;20498;-83
2022/02/18 11:47:16;;;;;;;1.23;1.00;;;17.60;94.20;;;;;;5133889;27;20455;-84
2022/02/18 11:49:44;;;;;;;1.70;0.90;;;17.40;94.60;;;;;;5133070;27;21047;-85
2022/02/18 11:52:12;;;;;;;1.07;0.97;;;17.10;94.80;;;;;;5133970;27;20879;-85
2022/02/18 11:54:40;;;;;;;2.17;1.07;;;17.20;94.60;;;;;;5132841;27;20503;-84
2022/02/18 11:57:09;;;;;;;1.83;0.90;;;17.10;94.70;;;;;;5137156;27;20458;-84
2022/02/18 12:00:02;;;;;;;3.03;1.13;;;16.90;94.20;;;;;;5138109;27;20490;-85
2022/02/18 12:02:48;;;;;;;1.57;1.07;;;16.90;94.40;;;;;;5129833;27;20457;-83
2022/02/18 12:05:16;;;;;;;3.43;1.30;;;16.90;94.50;;;;;;5143430;27;20472;-83
2022/02/18 12:07:45;;;;;;;3.60;0.83;;;16.50;94.40;;;;;;5160583;27;20448;-83
2022/02/18 12:10:23;;;;;;;1.43;0.70;;;16.60;94.10;;;;;;5164267;27;20618;-83
2022/02/18 12:12:50;;;;;;;0.63;0.50;;;17.00;94.30;;;;;;5166718;27;20488;-83
2022/02/18 12:15:25;;;;;;;1.10;0.70;;;17.50;93.70;;;;;;5166875;27;20496;-84
2022/02/18 12:17:57;;;;;;;1.80;0.60;;;17.50;93.60;;;;;;5165298;27;20454;-83
2022/02/18 12:20:27;;;;;;;1.10;1.10;;;17.20;93.10;;;;;;5167166;27;20927;-84
2022/02/18 12:22:54;;;;;;;0.87;0.70;;;16.70;93.40;;;;;;5161903;27;20446;-84
2022/02/18 12:25:24;;;;;;;0.90;0.90;;;16.50;93.90;;;;;;5152750;27;20469;-83
2022/02/18 12:27:53;;;;;;;1.53;1.00;;;16.30;94.20;;;;;;5151619;27;20537;-84
2022/02/18 12:30:41;;;;;;;1.97;0.67;;;16.30;94.70;;;;;;5151801;27;20468;-83
2022/02/18 12:33:10;;;;;;;1.30;1.20;;;16.30;95.00;;;;;;5151665;27;20504;-84
2022/02/18 12:35:37;;;;;;;8.30;1.37;;;16.00;95.60;;;;;;5143380;27;20475;-82
2022/02/18 12:38:07;;;;;;;1.47;0.90;;;16.00;95.70;;;;;;5141395;27;20449;-82
2022/02/18 12:40:39;;;;;;;3.40;1.70;;;16.10;95.90;;;;;;5141395;27;20450;-82
2022/02/18 12:43:11;;;;;;;6.20;1.00;;;16.30;95.40;;;;;;5140967;27;20946;-82
2022/02/18 12:45:54;;;;;;;1.37;0.90;;;16.20;95.30;;;;;;5141299;27;20508;-82
2022/02/18 12:48:32;;;;;;;0.67;0.67;;;16.10;95.80;;;;;;5139560;27;20448;-82
2022/02/18 12:51:01;;;;;;;1.80;0.83;;;15.90;96.00;;;;;;5141302;27;20447;-82
2022/02/18 12:53:28;;;;;;;3.03;0.97;;;15.80;96.00;;;;;;5140622;27;20476;-82
2022/02/18 12:55:55;;;;;;;0.53;0.53;;;15.80;96.10;;;;;;5140499;27;20806;-82
2022/02/18 12:58:22;;;;;;;3.30;0.80;;;15.70;95.90;;;;;;5140604;27;20445;-82
2022/02/18 13:00:49;;;;;;;1.73;0.60;;;15.80;96.10;;;;;;5140261;27;20459;-82
2022/02/18 13:03:17;;;;;;;3.80;0.83;;;15.60;96.00;;;;;;5143401;27;20453;-82
2022/02/18 13:05:44;;;;;;;1.47;1.17;;;15.70;96.50;;;;;;5148010;27;20465;-82